Time;durP1;ratioP1;P1;durP2;ratioP2;P2;SDS_P1;SDS_P2;PMS_P1;PMS_P2;Temp;Humidity;BMP_temperature;BMP_pressure;BME280_temperature;BME280_humidity;BME280_pressure;Samples;Min_cycle;Max_cycle;Signal;HPM_P1;HPM_P2
2023/07/05 00:01:54;;;;;;;10.17;9.40;;;;;;;26.33;74.24;99298.09;4955430;28;20196;-80
2023/07/05 00:04:21;;;;;;;10.30;9.27;;;;;;;26.32;74.50;99301.91;4955254;29;20196;-80
2023/07/05 00:06:47;;;;;;;9.50;8.53;;;;;;;26.39;74.16;99305.03;4971295;28;20274;-79
2023/07/05 00:09:14;;;;;;;9.73;8.93;;;;;;;26.47;74.47;99309.78;4974481;28;20777;-79
2023/07/05 00:11:40;;;;;;;9.90;9.10;;;;;;;26.49;74.28;99302.91;4974589;28;20667;-78
2023/07/05 00:14:07;;;;;;;10.10;9.20;;;;;;;26.50;74.39;99303.72;4956666;28;20275;-77
2023/07/05 00:16:35;;;;;;;9.73;8.87;;;;;;;26.48;74.52;99297.75;4955362;29;20262;-78
2023/07/05 00:19:02;;;;;;;10.97;9.87;;;;;;;26.51;73.61;99299.91;4955179;29;20667;-80
2023/07/05 00:21:28;;;;;;;10.33;9.43;;;;;;;26.50;73.29;99309.19;4955381;29;20267;-80
2023/07/05 00:23:55;;;;;;;11.80;10.80;;;;;;;26.49;73.31;99313.00;4954939;29;20247;-78
2023/07/05 00:26:24;;;;;;;9.97;9.23;;;;;;;26.51;73.10;99305.34;4955102;29;20239;-79
2023/07/05 00:28:51;;;;;;;10.93;10.03;;;;;;;26.53;73.57;99297.66;4954645;29;20207;-78
2023/07/05 00:31:18;;;;;;;10.47;9.50;;;;;;;26.50;73.20;99299.06;4954847;29;20667;-78
2023/07/05 00:33:47;;;;;;;10.47;9.57;;;;;;;26.46;73.13;99291.84;4954395;29;20254;-79
2023/07/05 00:36:14;;;;;;;10.27;9.43;;;;;;;26.49;73.06;99291.19;4955358;29;20233;-78
2023/07/05 00:38:40;;;;;;;13.20;10.73;;;;;;;26.50;73.51;99284.66;4954754;29;20255;-78
2023/07/05 00:41:07;;;;;;;12.33;8.97;;;;;;;26.20;74.10;99282.53;4955054;29;20574;-78
2023/07/05 00:43:34;;;;;;;10.40;9.30;;;;;;;26.19;73.98;99280.94;4954024;29;20243;-78
2023/07/05 00:46:06;;;;;;;11.37;9.07;;;;;;;26.24;73.87;99287.09;4953953;29;20263;-78
2023/07/05 00:48:38;;;;;;;9.50;8.63;;;;;;;26.16;73.93;99276.09;4954658;29;20215;-79
2023/07/05 00:51:13;;;;;;;8.87;8.20;;;;;;;25.91;74.76;99273.81;4954551;29;20711;-81
2023/07/05 00:53:40;;;;;;;8.47;7.97;;;;;;;25.88;75.17;99275.22;4954308;29;20188;-81
2023/07/05 00:56:11;;;;;;;9.03;8.33;;;;;;;25.83;75.21;99269.06;4954116;29;20558;-81
2023/07/05 00:58:40;;;;;;;7.93;7.37;;;;;;;25.76;75.60;99265.97;4954940;29;20192;-82
2023/07/05 01:01:07;;;;;;;9.77;8.97;;;;;;;25.71;76.10;99263.31;4954292;29;20251;-81
2023/07/05 01:03:35;;;;;;;8.90;8.10;;;;;;;25.38;77.62;99259.00;4953807;29;20642;-81
2023/07/05 01:06:02;;;;;;;11.03;8.77;;;;;;;25.45;77.15;99257.53;4964253;28;20254;-80
2023/07/05 01:08:30;;;;;;;9.50;8.60;;;;;;;25.40;77.13;99256.81;4967578;28;20315;-81
2023/07/05 01:11:09;;;;;;;9.47;8.57;;;;;;;25.38;77.57;99254.38;4954225;29;20648;-81
2023/07/05 01:13:41;;;;;;;8.73;8.03;;;;;;;25.46;77.54;99261.03;4953054;28;20184;-81
2023/07/05 01:16:27;;;;;;;8.17;7.57;;;;;;;25.41;77.83;99263.84;4954190;29;20188;-81
2023/07/05 01:19:00;;;;;;;11.10;8.37;;;;;;;25.47;78.00;99260.75;4954605;29;20191;-81
2023/07/05 01:21:43;;;;;;;8.50;7.87;;;;;;;25.41;77.94;99253.78;4954080;29;20191;-82
2023/07/05 01:24:38;;;;;;;9.40;7.43;;;;;;;25.45;77.85;99249.38;4953891;29;20188;-79
2023/07/05 01:27:38;;;;;;;9.97;9.17;;;;;;;25.50;77.49;99249.28;4954337;29;20215;-81
2023/07/05 01:30:52;;;;;;;9.67;8.67;;;;;;;25.47;78.31;99243.63;4951038;29;20247;-82
2023/07/05 01:33:27;;;;;;;9.53;8.70;;;;;;;25.56;78.11;99250.78;4953678;29;20255;-82
2023/07/05 01:35:56;;;;;;;8.33;7.63;;;;;;;25.63;77.53;99245.75;4954429;29;20246;-80
2023/07/05 01:38:23;;;;;;;10.57;7.70;;;;;;;25.71;77.32;99246.97;4954292;29;20204;-81
2023/07/05 01:41:02;;;;;;;8.23;7.60;;;;;;;25.76;77.20;99249.63;4953717;29;20196;-81
2023/07/05 01:43:32;;;;;;;9.37;8.60;;;;;;;25.82;77.22;99249.22;4953841;29;20247;-81
2023/07/05 01:46:24;;;;;;;12.60;8.63;;;;;;;25.90;77.26;99255.88;4954232;29;20263;-81
2023/07/05 01:49:27;;;;;;;12.93;8.50;;;;;;;26.03;76.81;99257.84;4952164;29;20264;-80
2023/07/05 01:51:59;;;;;;;8.27;7.53;;;;;;;26.07;76.19;99261.56;4951156;29;20742;-80
2023/07/05 01:54:33;;;;;;;8.50;7.90;;;;;;;26.10;76.12;99260.97;4954334;29;20247;-80
2023/07/05 01:57:05;;;;;;;8.33;7.60;;;;;;;26.14;76.19;99267.44;4954022;29;20247;-79
2023/07/05 01:59:38;;;;;;;9.47;8.17;;;;;;;26.20;75.69;99258.84;4953846;29;20184;-79
2023/07/05 02:02:07;;;;;;;9.33;8.60;;;;;;;26.28;75.95;99260.03;4953146;29;20247;-78
2023/07/05 02:04:35;;;;;;;9.57;8.70;;;;;;;26.36;75.54;99270.22;4953767;29;20734;-81
2023/07/05 02:07:04;;;;;;;9.93;9.03;;;;;;;26.43;74.80;99270.63;4971840;28;20302;-79
2023/07/05 02:09:32;;;;;;;9.93;8.93;;;;;;;26.48;74.06;99267.78;4973233;28;20239;-80
2023/07/05 02:11:58;;;;;;;12.03;9.40;;;;;;;26.47;74.07;99267.00;4964339;28;20713;-80
2023/07/05 02:14:25;;;;;;;11.57;9.90;;;;;;;26.48;74.11;99273.25;4954285;29;20204;-81
2023/07/05 02:16:52;;;;;;;10.17;9.40;;;;;;;26.46;74.27;99272.75;4953911;29;20267;-81
2023/07/05 02:19:18;;;;;;;10.63;9.47;;;;;;;26.46;74.51;99270.03;4953417;29;20188;-80
2023/07/05 02:21:46;;;;;;;10.23;9.23;;;;;;;26.45;74.74;99276.59;4957749;28;20195;-80
2023/07/05 02:24:14;;;;;;;10.27;9.40;;;;;;;26.48;74.45;99275.97;4965048;28;20255;-81
2023/07/05 02:26:40;;;;;;;10.47;9.57;;;;;;;26.45;74.15;99284.78;4968121;28;20247;-80
2023/07/05 02:29:07;;;;;;;11.80;10.23;;;;;;;26.43;74.65;99289.72;4966305;28;20239;-81
2023/07/05 02:31:35;;;;;;;14.27;10.50;;;;;;;26.34;74.36;99291.53;4966601;28;20196;-81
2023/07/05 02:34:02;;;;;;;12.60;11.23;;;;;;;26.17;74.72;99291.34;4968160;28;20247;-81
2023/07/05 02:36:29;;;;;;;10.70;9.87;;;;;;;26.14;75.26;99294.66;4964147;28;20224;-81
2023/07/05 02:38:55;;;;;;;13.20;10.50;;;;;;;25.72;77.22;99298.38;4968691;28;20246;-81
2023/07/05 02:41:23;;;;;;;12.00;10.93;;;;;;;25.41;78.99;99291.88;4965494;28;20192;-81
2023/07/05 02:43:50;;;;;;;11.80;10.73;;;;;;;25.20;79.71;99295.16;4966081;28;20253;-81
2023/07/05 02:46:17;;;;;;;15.17;10.40;;;;;;;25.25;80.77;99297.81;4966111;28;20582;-80
2023/07/05 02:48:45;;;;;;;11.37;10.10;;;;;;;25.27;80.15;99295.59;4964254;28;20706;-79
2023/07/05 02:51:11;;;;;;;10.97;10.03;;;;;;;25.24;79.93;99291.56;4967300;28;20219;-79
2023/07/05 02:53:38;;;;;;;11.40;10.60;;;;;;;25.24;81.12;99299.72;4965653;28;20250;-79
2023/07/05 02:56:05;;;;;;;10.90;10.00;;;;;;;25.24;80.76;99290.75;4965172;28;20737;-79
2023/07/05 02:58:33;;;;;;;12.17;11.07;;;;;;;25.24;80.98;99282.59;4966457;28;20199;-79
2023/07/05 03:00:59;;;;;;;10.97;9.87;;;;;;;25.23;80.65;99286.44;4965248;28;20583;-79
2023/07/05 03:03:26;;;;;;;10.77;9.87;;;;;;;25.31;80.14;99285.78;4966861;28;20188;-80
2023/07/05 03:05:57;;;;;;;11.10;10.00;;;;;;;25.37;79.10;99279.16;4963972;28;20265;-79
2023/07/05 03:08:25;;;;;;;11.27;10.37;;;;;;;25.45;80.09;99281.19;4966240;28;20227;-80
2023/07/05 03:10:53;;;;;;;11.43;10.27;;;;;;;25.58;79.28;99285.84;4964526;28;20184;-80
2023/07/05 03:13:20;;;;;;;15.83;10.73;;;;;;;25.63;79.16;99270.25;4965899;28;20191;-81
2023/07/05 03:15:48;;;;;;;17.33;10.90;;;;;;;25.67;78.55;99273.16;4965979;28;20196;-81
2023/07/05 03:18:14;;;;;;;11.43;10.27;;;;;;;25.74;78.83;99276.31;4962174;28;20251;-81
2023/07/05 03:20:41;;;;;;;19.43;10.50;;;;;;;25.85;78.10;99266.88;4964863;28;20319;-81
2023/07/05 03:23:08;;;;;;;12.10;10.83;;;;;;;25.92;77.76;99261.84;4966350;28;20747;-81
2023/07/05 03:25:34;;;;;;;10.67;9.87;;;;;;;25.95;76.79;99263.97;4964540;28;20671;-80
2023/07/05 03:28:03;;;;;;;11.47;10.73;;;;;;;25.97;76.72;99259.06;4965284;28;20710;-80
2023/07/05 03:30:29;;;;;;;11.00;10.13;;;;;;;26.06;76.73;99265.41;4966156;28;20290;-80
2023/07/05 03:32:57;;;;;;;11.80;10.27;;;;;;;26.11;77.22;99262.56;4970406;28;20266;-77
2023/07/05 03:35:24;;;;;;;11.47;9.77;;;;;;;26.21;76.75;99265.13;4974605;28;20243;-77
2023/07/05 03:37:51;;;;;;;12.33;10.63;;;;;;;26.38;76.31;99268.03;4975128;28;20659;-76
2023/07/05 03:40:17;;;;;;;10.77;9.77;;;;;;;26.51;75.32;99268.00;4971118;28;20590;-78
2023/07/05 03:42:44;;;;;;;12.30;11.17;;;;;;;26.67;74.99;99272.06;4954755;29;20259;-78
2023/07/05 03:45:11;;;;;;;12.80;11.17;;;;;;;26.71;74.20;99261.34;4955877;29;20204;-79
2023/07/05 03:47:38;;;;;;;12.73;11.60;;;;;;;26.75;73.30;99271.31;4956227;29;20224;-79
2023/07/05 03:50:07;;;;;;;12.83;11.57;;;;;;;26.69;73.07;99277.19;4955923;29;20196;-79
2023/07/05 03:52:34;;;;;;;16.93;11.03;;;;;;;26.49;73.31;99274.84;4955462;29;20196;-80
2023/07/05 03:55:00;;;;;;;14.33;11.80;;;;;;;26.37;74.10;99271.88;4955895;29;20270;-79
2023/07/05 03:57:27;;;;;;;12.60;11.37;;;;;;;26.33;75.63;99270.84;4955878;29;20247;-79
2023/07/05 03:59:54;;;;;;;11.90;11.03;;;;;;;26.38;74.32;99281.66;4955863;29;20199;-79
2023/07/05 04:02:20;;;;;;;16.80;12.07;;;;;;;26.38;73.88;99281.66;4955281;29;20235;-79
2023/07/05 04:04:47;;;;;;;12.33;11.13;;;;;;;26.44;74.45;99283.97;4955491;28;20228;-77
2023/07/05 04:07:15;;;;;;;14.27;11.30;;;;;;;26.70;73.35;99287.00;4974571;28;20289;-76
2023/07/05 04:09:42;;;;;;;18.33;11.10;;;;;;;27.15;71.77;99291.41;4975013;28;20290;-81
2023/07/05 04:12:09;;;;;;;10.77;9.90;;;;;;;27.81;70.14;99294.13;4973282;28;20242;-80
2023/07/05 04:14:36;;;;;;;15.37;11.13;;;;;;;28.64;66.43;99288.53;4955639;29;20619;-78
2023/07/05 04:17:03;;;;;;;10.63;9.77;;;;;;;29.42;63.06;99298.41;4955559;29;20580;-78
2023/07/05 04:19:29;;;;;;;10.40;9.37;;;;;;;30.11;61.08;99306.19;4955302;29;20207;-77
2023/07/05 04:21:56;;;;;;;10.60;9.70;;;;;;;30.65;58.87;99313.53;4955039;29;20192;-79
2023/07/05 04:24:24;;;;;;;16.80;10.03;;;;;;;31.26;56.65;99315.56;4955340;29;20196;-80
2023/07/05 04:26:51;;;;;;;12.10;10.87;;;;;;;31.61;56.00;99308.59;4954988;29;20250;-77
2023/07/05 04:29:17;;;;;;;11.43;10.27;;;;;;;31.92;54.48;99308.16;4954604;29;20778;-80
2023/07/05 04:31:44;;;;;;;21.27;10.93;;;;;;;32.29;52.91;99313.41;4954218;29;20750;-80
2023/07/05 04:34:11;;;;;;;11.27;10.27;;;;;;;32.63;52.31;99312.94;4954829;29;20635;-79
2023/07/05 04:36:37;;;;;;;12.30;10.43;;;;;;;32.84;51.28;99305.41;4955154;29;20275;-79
2023/07/05 04:39:04;;;;;;;13.10;10.50;;;;;;;33.36;49.01;99304.56;4955067;29;20200;-79
2023/07/05 04:41:32;;;;;;;16.43;10.53;;;;;;;33.50;48.95;99304.97;4954225;29;20247;-78
2023/07/05 04:43:59;;;;;;;18.80;9.87;;;;;;;33.91;47.01;99310.06;4954567;29;20255;-78
2023/07/05 04:46:26;;;;;;;10.67;9.70;;;;;;;34.27;46.39;99301.53;4954219;28;20196;-79
2023/07/05 04:48:52;;;;;;;20.70;10.27;;;;;;;34.91;44.48;99301.94;4953819;29;20239;-79
2023/07/05 04:51:19;;;;;;;11.73;10.07;;;;;;;35.38;43.25;99302.59;4953879;29;20620;-79
2023/07/05 04:53:46;;;;;;;12.27;10.00;;;;;;;35.68;41.59;99301.59;4954753;29;20208;-79
2023/07/05 04:56:14;;;;;;;15.60;10.52;;;;;;;35.97;41.17;99300.22;4954742;29;20196;-79
2023/07/05 04:58:43;;;;;;;12.55;9.77;;;;;;;35.90;41.59;99302.84;4954688;29;20195;-79
2023/07/05 05:01:10;;;;;;;15.95;9.98;;;;;;;35.94;41.05;99296.22;4953651;29;20203;-79
2023/07/05 05:03:37;;;;;;;11.57;9.60;;;;;;;36.26;40.54;99305.09;4953573;29;20203;-79
2023/07/05 05:06:04;;;;;;;13.20;8.88;;;;;;;36.51;40.31;99295.22;4964720;28;20195;-79
2023/07/05 05:08:31;;;;;;;13.27;9.73;;;;;;;36.67;39.98;99295.88;4973347;28;20235;-78
2023/07/05 05:11:00;;;;;;;11.38;10.38;;;;;;;37.03;39.11;99300.78;4971526;28;20188;-74
2023/07/05 05:13:28;;;;;;;17.95;9.30;;;;;;;37.38;37.86;99284.59;4954084;29;20758;-77
2023/07/05 05:15:56;;;;;;;16.70;10.18;;;;;;;37.88;36.31;99286.75;4954077;29;20196;-76
2023/07/05 05:18:24;;;;;;;13.10;10.32;;;;;;;38.37;35.13;99281.66;4954031;29;20211;-78
2023/07/05 05:20:50;;;;;;;11.00;10.07;;;;;;;38.22;34.98;99285.53;4953277;29;20214;-75
2023/07/05 05:23:17;;;;;;;10.93;9.88;;;;;;;37.99;35.34;99287.66;4952781;28;20242;-74
2023/07/05 05:25:46;;;;;;;8.77;7.95;;;;;;;38.22;35.93;99287.50;4952716;29;20687;-74
2023/07/05 05:28:14;;;;;;;13.70;9.20;;;;;;;38.23;35.26;99286.31;4952727;29;20227;-75
2023/07/05 05:30:43;;;;;;;15.32;9.57;;;;;;;37.86;35.82;99286.34;4953185;29;20192;-76
2023/07/05 05:33:11;;;;;;;11.07;8.75;;;;;;;37.47;36.93;99282.31;4953470;29;20198;-77
2023/07/05 05:35:38;;;;;;;10.80;9.95;;;;;;;37.11;36.95;99283.06;4952176;29;20204;-75
2023/07/05 05:38:05;;;;;;;12.70;8.90;;;;;;;37.08;37.78;99284.59;4951895;29;20200;-86
2023/07/05 05:40:34;;;;;;;10.23;8.68;;;;;;;37.00;37.97;99279.34;4953051;29;20200;-82
2023/07/05 05:43:01;;;;;;;11.57;8.82;;;;;;;37.29;36.78;99281.34;4952130;29;20192;-74
2023/07/05 05:45:28;;;;;;;9.02;8.40;;;;;;;37.22;37.41;99275.69;4951243;29;20347;-79
2023/07/05 05:47:54;;;;;;;10.00;8.85;;;;;;;37.26;37.63;99276.53;4952948;29;20282;-78
2023/07/05 05:50:24;;;;;;;11.77;10.63;;;;;;;37.33;36.88;99275.81;4953637;29;20259;-78
2023/07/05 05:52:51;;;;;;;11.27;9.80;;;;;;;37.22;36.58;99284.00;4953035;29;20200;-77
2023/07/05 05:55:18;;;;;;;11.15;9.98;;;;;;;37.21;37.45;99285.19;4953908;29;20192;-78
2023/07/05 05:57:44;;;;;;;11.25;10.18;;;;;;;37.14;37.27;99279.56;4954124;29;20678;-77
2023/07/05 06:00:12;;;;;;;11.15;9.18;;;;;;;37.04;37.94;99280.19;4957017;28;20207;-78
2023/07/05 06:02:39;;;;;;;17.38;9.50;;;;;;;37.10;37.01;99281.44;4956092;29;20199;-76
2023/07/05 06:05:08;;;;;;;12.13;10.13;;;;;;;37.01;37.67;99280.94;4940261;28;20201;-75
2023/07/05 06:07:36;;;;;;;11.98;9.25;;;;;;;36.79;38.65;99279.06;4975292;28;20215;-78
2023/07/05 06:10:03;;;;;;;9.60;8.80;;;;;;;36.66;38.83;99280.44;4975665;28;20752;-78
2023/07/05 06:12:30;;;;;;;10.20;8.90;;;;;;;36.48;38.89;99280.16;4953998;28;20258;-78
2023/07/05 06:14:57;;;;;;;12.27;9.10;;;;;;;36.54;38.58;99278.66;4942826;29;20262;-75
2023/07/05 06:17:24;;;;;;;13.63;10.07;;;;;;;36.65;37.88;99276.03;4957073;29;20290;-75
2023/07/05 06:19:50;;;;;;;13.73;10.02;;;;;;;36.75;37.53;99269.91;4957130;29;20200;-73
2023/07/05 06:22:17;;;;;;;21.05;10.65;;;;;;;36.60;37.46;99271.63;4957235;29;20200;-74
2023/07/05 06:24:45;;;;;;;11.65;10.65;;;;;;;36.41;38.31;99279.22;4956698;29;20627;-74
2023/07/05 06:27:11;;;;;;;10.32;9.52;;;;;;;36.32;39.13;99276.75;4957483;29;20259;-76
2023/07/05 06:29:39;;;;;;;10.13;9.20;;;;;;;36.43;39.04;99265.84;4956223;29;20306;-76
2023/07/05 06:32:06;;;;;;;12.10;9.48;;;;;;;36.39;39.70;99264.97;4955680;29;20271;-73
2023/07/05 06:34:33;;;;;;;12.00;10.63;;;;;;;36.57;38.59;99266.03;4957303;29;20204;-77
2023/07/05 06:37:00;;;;;;;10.65;9.55;;;;;;;36.74;38.35;99262.75;4956945;29;20255;-76
2023/07/05 06:39:26;;;;;;;10.50;9.23;;;;;;;36.55;38.09;99257.31;4956973;29;20235;-78
2023/07/05 06:41:54;;;;;;;19.10;10.73;;;;;;;36.41;38.50;99246.00;4956055;29;20256;-75
2023/07/05 06:44:21;;;;;;;10.48;9.48;;;;;;;36.34;39.36;99259.78;4956992;29;20200;-74
2023/07/05 06:46:48;;;;;;;10.40;9.65;;;;;;;36.41;38.95;99255.13;4956578;29;20196;-75
2023/07/05 06:49:14;;;;;;;10.70;9.68;;;;;;;36.27;39.12;99248.56;4956665;29;20766;-74
2023/07/05 06:51:41;;;;;;;12.02;9.88;;;;;;;36.56;37.66;99254.19;4955753;29;20200;-75
2023/07/05 06:54:08;;;;;;;11.43;10.55;;;;;;;36.59;38.27;99261.72;4956404;29;20196;-76
2023/07/05 06:56:35;;;;;;;11.52;10.40;;;;;;;36.75;38.10;99262.38;4956607;29;20660;-79
2023/07/05 06:59:04;;;;;;;11.18;10.10;;;;;;;36.79;38.26;99260.47;4956687;29;20204;-77
2023/07/05 07:01:30;;;;;;;11.27;10.35;;;;;;;36.72;38.51;99259.56;4956483;29;20668;-75
2023/07/05 07:03:57;;;;;;;12.07;10.88;;;;;;;36.79;38.38;99263.22;4956561;29;20246;-76
2023/07/05 07:06:24;;;;;;;13.13;10.35;;;;;;;36.46;39.19;99262.31;4968825;28;20242;-78
2023/07/05 07:08:50;;;;;;;10.88;9.80;;;;;;;36.21;39.61;99258.34;4974571;28;20302;-75
2023/07/05 07:11:17;;;;;;;10.63;9.90;;;;;;;35.95;40.59;99266.59;4967897;28;20269;-74
2023/07/05 07:13:44;;;;;;;11.25;10.18;;;;;;;35.92;40.86;99261.78;4956667;29;20196;-75
2023/07/05 07:16:13;;;;;;;11.90;10.82;;;;;;;36.03;39.47;99257.25;4955908;29;20191;-74
2023/07/05 07:18:44;;;;;;;12.57;11.27;;;;;;;35.66;39.99;99259.72;4954017;29;20195;-75
2023/07/05 07:21:11;;;;;;;19.75;11.95;;;;;;;35.88;40.88;99255.41;4956001;29;20188;-75
2023/07/05 07:23:38;;;;;;;10.70;10.00;;;;;;;35.81;40.64;99249.75;4957701;28;20227;-82
2023/07/05 07:26:07;;;;;;;18.05;10.93;;;;;;;35.86;40.86;99249.44;4957574;28;20192;-75
2023/07/05 07:28:34;;;;;;;11.82;10.73;;;;;;;35.95;40.50;99249.97;4964641;28;20216;-73
2023/07/05 07:31:10;;;;;;;13.05;11.82;;;;;;;35.84;40.35;99252.56;4958438;28;20200;-75
2023/07/05 07:33:38;;;;;;;19.77;11.05;;;;;;;35.79;40.83;99252.06;4957294;28;20275;-75
2023/07/05 07:36:10;;;;;;;12.45;11.20;;;;;;;36.02;40.64;99248.16;4957941;28;20192;-77
2023/07/05 07:38:36;;;;;;;12.70;11.55;;;;;;;36.16;40.08;99250.34;4949940;28;20700;-77
2023/07/05 07:41:03;;;;;;;26.02;12.20;;;;;;;36.19;40.58;99244.88;4953688;28;20280;-76
2023/07/05 07:43:30;;;;;;;17.17;11.57;;;;;;;36.33;39.81;99255.38;4964771;28;20200;-79
2023/07/05 07:45:57;;;;;;;28.33;12.88;;;;;;;36.12;39.57;99250.28;4949282;29;20289;-77
2023/07/05 07:48:23;;;;;;;12.55;11.55;;;;;;;36.32;40.20;99253.78;4957827;28;20637;-76
2023/07/05 07:50:52;;;;;;;14.13;12.35;;;;;;;36.61;39.00;99251.09;4959967;28;20623;-76
2023/07/05 07:53:18;;;;;;;13.73;11.18;;;;;;;36.79;38.85;99245.84;4956438;28;20200;-76
2023/07/05 07:55:45;;;;;;;13.77;12.57;;;;;;;36.77;37.77;99242.63;4957447;28;20192;-74
2023/07/05 07:58:12;;;;;;;11.38;10.38;;;;;;;36.85;38.97;99249.84;4959437;28;20200;-78
2023/07/05 08:00:38;;;;;;;13.50;11.38;;;;;;;37.04;38.21;99258.03;4956265;28;20671;-79
2023/07/05 08:03:05;;;;;;;12.85;11.60;;;;;;;37.29;37.85;99248.06;4958038;28;20498;-83
2023/07/05 08:05:32;;;;;;;12.52;11.20;;;;;;;37.30;37.05;99240.56;4959390;28;20693;-74
2023/07/05 08:08:00;;;;;;;25.30;11.60;;;;;;;37.33;38.10;99239.78;4962964;28;20267;-76
2023/07/05 08:10:28;;;;;;;12.20;11.25;;;;;;;37.12;37.90;99243.09;4962245;28;20277;-75
2023/07/05 08:12:56;;;;;;;10.52;9.55;;;;;;;37.15;38.33;99242.38;4958047;28;20250;-72
2023/07/05 08:15:23;;;;;;;10.57;9.98;;;;;;;36.98;38.90;99248.44;4961226;28;20570;-72
2023/07/05 08:17:50;;;;;;;12.32;11.43;;;;;;;36.60;39.06;99248.69;4957929;28;20195;-74
2023/07/05 08:20:17;;;;;;;13.65;12.38;;;;;;;36.41;38.03;99246.00;4955323;28;20205;-79
2023/07/05 08:22:43;;;;;;;14.32;12.88;;;;;;;36.14;38.52;99252.69;4953555;28;20196;-80
2023/07/05 08:25:12;;;;;;;36.95;25.50;;;;;;;36.33;39.03;99247.88;4953825;28;20199;-81
2023/07/05 08:27:38;;;;;;;12.57;11.40;;;;;;;36.67;37.79;99237.72;4953997;28;20263;-79
2023/07/05 08:30:06;;;;;;;12.05;10.82;;;;;;;36.74;37.78;99237.81;4950668;28;20821;-80
2023/07/05 08:32:33;;;;;;;13.35;11.70;;;;;;;36.86;37.96;99237.59;4952483;28;20192;-76
2023/07/05 08:35:01;;;;;;;13.77;12.85;;;;;;;36.74;37.91;99229.53;4956229;28;21010;-73
2023/07/05 08:37:28;;;;;;;12.45;11.32;;;;;;;36.70;38.22;99237.00;4957995;28;20199;-73
2023/07/05 08:39:55;;;;;;;16.13;11.43;;;;;;;36.40;38.75;99228.63;4953123;28;20262;-79
2023/07/05 08:42:33;;;;;;;15.15;12.40;;;;;;;36.73;38.60;99230.69;4959138;28;20226;-81
2023/07/05 08:45:12;;;;;;;13.57;11.80;;;;;;;36.97;37.57;99230.22;4957367;28;20242;-75
2023/07/05 08:47:46;;;;;;;12.52;11.30;;;;;;;37.20;36.83;99228.19;4958529;28;20204;-75
2023/07/05 08:50:22;;;;;;;11.73;10.82;;;;;;;37.41;35.64;99217.31;4956687;28;20207;-78
2023/07/05 08:52:51;;;;;;;11.20;10.30;;;;;;;37.48;35.31;99220.19;4958423;28;20191;-79
2023/07/05 08:55:24;;;;;;;12.02;10.95;;;;;;;37.63;35.18;99219.16;4940933;28;20211;-82
2023/07/05 08:57:54;;;;;;;13.43;12.07;;;;;;;37.49;35.50;99219.00;4951909;28;20210;-74
2023/07/05 09:00:25;;;;;;;12.98;11.98;;;;;;;37.39;35.96;99213.34;4950185;28;20255;-76
2023/07/05 09:02:52;;;;;;;12.32;11.10;;;;;;;37.32;36.24;99224.34;4952214;28;20856;-74
2023/07/05 09:05:30;;;;;;;12.40;11.48;;;;;;;37.31;34.96;99215.22;4954809;28;20203;-71
2023/07/05 09:08:10;;;;;;;10.73;9.93;;;;;;;37.12;35.25;99209.84;4949306;28;20714;-76
2023/07/05 09:10:43;;;;;;;11.15;10.15;;;;;;;37.24;34.80;99209.63;4951194;28;20270;-77
2023/07/05 09:13:22;;;;;;;11.38;10.23;;;;;;;37.52;35.17;99203.56;4950087;28;20203;-76
2023/07/05 09:16:00;;;;;;;11.25;10.13;;;;;;;37.46;35.15;99202.31;4949606;28;20270;-75
2023/07/05 09:18:36;;;;;;;19.23;10.43;;;;;;;37.52;34.97;99196.06;4949564;28;20591;-80
2023/07/05 09:21:14;;;;;;;15.55;11.48;;;;;;;37.65;34.81;99200.16;4946593;28;20278;-82
2023/07/05 09:23:47;;;;;;;11.68;10.77;;;;;;;37.51;35.18;99191.66;4948879;28;20196;-77
2023/07/05 09:26:20;;;;;;;12.23;11.32;;;;;;;37.69;34.46;99178.00;4949422;28;20207;-71
2023/07/05 09:28:54;;;;;;;11.80;10.63;;;;;;;37.80;34.23;99179.69;4949630;28;20192;-74
2023/07/05 09:31:25;;;;;;;11.13;10.43;;;;;;;37.79;34.73;99161.47;4955740;28;20656;-73
2023/07/05 09:34:02;;;;;;;12.48;11.38;;;;;;;37.87;35.11;99165.06;4943288;28;20200;-74
2023/07/05 09:36:29;;;;;;;13.45;10.65;;;;;;;38.02;33.99;99159.25;4950520;28;20687;-74
2023/07/05 09:39:07;;;;;;;13.13;10.68;;;;;;;37.92;34.00;99148.09;4950760;28;20212;-75
2023/07/05 09:41:43;;;;;;;12.23;11.02;;;;;;;37.66;34.61;99137.97;4950149;28;20664;-78
2023/07/05 09:44:11;;;;;;;14.70;10.48;;;;;;;37.69;34.91;99148.31;4959703;28;20605;-76
2023/07/05 09:46:39;;;;;;;13.98;10.00;;;;;;;37.68;33.87;99146.69;4958451;28;20732;-80
2023/07/05 09:49:12;;;;;;;9.43;8.60;;;;;;;37.69;34.00;99134.44;4958606;28;20290;-79
2023/07/05 09:51:41;;;;;;;11.57;10.60;;;;;;;37.43;34.29;99131.78;4950733;28;20642;-77
2023/07/05 09:54:12;;;;;;;10.55;9.85;;;;;;;37.77;33.83;99136.09;4951152;28;20204;-79
2023/07/05 09:56:58;;;;;;;10.57;9.98;;;;;;;37.44;34.12;99136.19;4956540;28;20707;-84
2023/07/05 09:59:27;;;;;;;12.23;10.00;;;;;;;37.63;35.01;99147.06;4934375;29;20199;-83
2023/07/05 10:01:57;;;;;;;10.50;9.80;;;;;;;37.84;33.82;99141.69;4950295;28;20259;-86
2023/07/05 10:04:28;;;;;;;10.82;10.02;;;;;;;37.77;34.57;99147.19;4949931;28;20833;-80
2023/07/05 10:06:55;;;;;;;11.85;10.63;;;;;;;37.49;35.07;99149.69;4956732;28;20279;-85
2023/07/05 10:09:25;;;;;;;10.82;9.80;;;;;;;37.17;35.42;99148.56;4950710;28;20232;-85
2023/07/05 10:11:53;;;;;;;10.18;9.25;;;;;;;37.11;35.63;99155.63;4946624;28;20208;-79
2023/07/05 10:14:27;;;;;;;10.32;9.52;;;;;;;37.19;35.25;99154.50;4950706;28;20286;-80
2023/07/05 10:16:57;;;;;;;9.88;8.98;;;;;;;37.09;34.76;99152.41;4946961;28;20208;-77
2023/07/05 10:19:29;;;;;;;9.95;9.07;;;;;;;36.91;35.24;99154.97;4949397;28;20204;-75
2023/07/05 10:22:02;;;;;;;9.30;8.45;;;;;;;36.50;36.09;99144.16;4950175;28;20232;-79
2023/07/05 10:24:31;;;;;;;9.25;8.57;;;;;;;36.45;36.18;99138.94;4950572;28;20208;-80
2023/07/05 10:27:03;;;;;;;11.68;9.57;;;;;;;35.76;37.68;99125.66;4950827;28;20676;-76
2023/07/05 10:29:32;;;;;;;10.63;9.35;;;;;;;35.86;37.98;99136.88;4950819;28;20773;-81
2023/07/05 10:32:00;;;;;;;9.73;8.85;;;;;;;35.86;37.95;99117.50;4950693;28;20204;-79
2023/07/05 10:34:27;;;;;;;10.82;9.77;;;;;;;35.68;38.61;99107.31;4954745;28;20231;-77
2023/07/05 10:36:55;;;;;;;10.80;10.00;;;;;;;34.93;41.16;99104.38;4952528;28;20195;-76
2023/07/05 10:39:24;;;;;;;10.65;10.00;;;;;;;34.62;42.29;99101.75;4957761;28;20282;-76
2023/07/05 10:41:57;;;;;;;11.85;10.63;;;;;;;34.92;41.84;99101.97;4954659;28;20196;-77
2023/07/05 10:44:29;;;;;;;12.45;10.32;;;;;;;35.11;41.21;99104.72;4958242;28;20192;-72
2023/07/05 10:46:57;;;;;;;12.82;11.73;;;;;;;35.22;40.72;99100.16;4956139;28;20204;-80
2023/07/05 10:49:28;;;;;;;12.00;10.85;;;;;;;34.94;40.89;99110.72;4956153;28;20223;-76
2023/07/05 10:52:01;;;;;;;14.02;12.60;;;;;;;35.07;40.81;99114.91;4951250;28;20204;-78
2023/07/05 10:54:35;;;;;;;12.75;11.77;;;;;;;35.23;40.74;99112.84;4950350;28;21000;-84
2023/07/05 10:57:10;;;;;;;12.00;10.30;;;;;;;34.99;40.38;99110.41;4953404;28;20187;-79
2023/07/05 10:59:40;;;;;;;9.90;9.05;;;;;;;34.96;39.93;99113.91;4952826;28;20581;-80
2023/07/05 11:02:23;;;;;;;11.23;10.10;;;;;;;34.99;40.59;99108.44;4952730;28;20266;-75
2023/07/05 11:04:54;;;;;;;12.40;10.10;;;;;;;34.74;41.28;99101.59;4960810;28;20681;-77
2023/07/05 11:07:22;;;;;;;12.98;10.93;;;;;;;34.74;41.54;99109.09;4949378;28;20254;-76
2023/07/05 11:09:49;;;;;;;11.02;9.95;;;;;;;34.59;42.03;99104.44;4954556;28;20727;-81
2023/07/05 11:12:21;;;;;;;31.85;11.60;;;;;;;34.67;42.35;99114.47;4954810;28;20267;-79
2023/07/05 11:14:50;;;;;;;11.30;10.32;;;;;;;34.59;42.77;99109.97;4954677;28;20195;-74
2023/07/05 11:17:31;;;;;;;11.73;10.70;;;;;;;34.52;42.96;99096.84;4960849;28;20199;-75
2023/07/05 11:19:59;;;;;;;11.23;10.40;;;;;;;34.66;43.16;99115.66;4950754;28;20299;-74
2023/07/05 11:22:41;;;;;;;11.82;10.75;;;;;;;34.65;42.72;99108.50;4956419;28;20256;-72
2023/07/05 11:25:13;;;;;;;12.88;10.38;;;;;;;34.58;42.97;99111.91;4959893;28;20203;-77
2023/07/05 11:27:54;;;;;;;12.27;10.27;;;;;;;34.68;43.43;99107.78;4957568;28;20192;-70
2023/07/05 11:30:42;;;;;;;11.45;10.43;;;;;;;34.68;42.16;99105.03;4955596;28;20276;-75
2023/07/05 11:33:16;;;;;;;10.82;9.70;;;;;;;34.55;42.51;99089.78;4950041;28;20283;-71